• Join FlightAware (Why Join?)
  • Login
  • US Flag 
04:51AM EST


 

Airport Tracker/Info


-or-


 

Live Flight TrackerFlight Track Log ✈ FLG3423 ✈ 30-Jul-2014 ✈ KLGA - KPIT

Flight Track Log - Related Links

Times and Time Zones

All times are in EDT time to prevent confusion due to time zone crossing. See the FLG3423 flight status page for this flight to view local times or setup timezone preferences in your user account.

Time Position Orientation Groundspeed Altitude Reporting Facility
EDT Latitude Longitude Course Direction KTS MPH feet Rate Location/Type
07:05AM 40.8333 -73.8667 270° West 189 217 2,800  Level New York TRACON
07:06AM 40.8833 -73.9000 333° Northwest 259 298 5,000 3,060 Climbing New York TRACON
07:07AM 40.9000 -73.9833 285° West 272 313 8,700 3,540 Climbing New York TRACON
07:08AM 40.8833 -74.0833 258° West 274 315 12,100 2,760 Climbing New York TRACON
07:09AM 40.8833 -74.2000 270° West 333 383 14,200 2,400 Climbing New York TRACON
07:10AM 40.8667 -74.3333 261° West 350 403 16,900 1,380 Climbing New York TRACON
07:11AM 40.7834 -74.5770 270° West  Level FlightAware Approximate
07:11AM 40.8606 -74.4531 266° West 386 444 17,000  Level New York Center
07:12AM 40.8497 -74.5978 264° West 399 459 17,000  Level New York Center
07:13AM 40.8364 -74.7425 263° West 394 453 17,000  Level New York Center
07:14AM 40.8278 -74.8792 265° West 387 445 17,000 780 Level New York Center
07:15AM 40.7894 -75.0139 249° West 387 445 18,600 1,740 Climbing New York Center
07:16AM 40.7492 -75.1511 249° West 392 451 20,600 1,980 Climbing New York Center
07:17AM 40.7083 -75.2908 249° West 407 468 22,600 1,980 Climbing New York Center
07:18AM 40.6653 -75.4331 248° West 407 468 24,600 1,680 Climbing New York Center
07:19AM 40.6242 -75.5750 249° West 413 475 26,000 660 Climbing New York Center
07:20AM 40.5853 -75.7144 250° West 413 475 26,000  Level New York Center
07:21AM 40.5397 -75.8533 247° West 419 482 26,000  Level New York Center
07:22AM 40.4961 -75.9919 248° West 419 482 26,000  Level New York Center
07:23AM 40.4522 -76.1333 248° West 419 482 26,000  Level New York Center
07:24AM 40.4106 -76.2692 248° West 419 482 26,000  Level New York Center
07:25AM 40.3706 -76.4103 250° West 419 482 26,000  Level New York Center
07:26AM 40.3364 -76.5544 253° West 419 482 26,000  Level New York Center
07:27AM 40.2983 -76.6956 251° West 419 482 26,000  Level New York Center
07:28AM 40.2617 -76.8422 252° West 419 482 26,000  Level New York Center
07:29AM 40.2253 -76.9803 251° West 414 476 26,000  Level New York Center
07:30AM 40.1906 -77.1242 253° West 414 476 26,000  Level New York Center
07:31AM 40.1514 -77.2672 250° West 414 476 26,000  Level New York Center
07:32AM 40.1194 -77.3944 252° West 414 476 26,000  Level New York Center
07:33AM 40.0903 -77.5092 252° West 413 475 26,000 -720 Level Cleveland Center
07:34AM 40.0456 -77.6775 251° West 411 473 24,700 -1,680 Descending Cleveland Center
07:35AM 40.0114 -77.8067 251° West 385 443 22,600 -1,320 Descending Cleveland Center
07:36AM 39.9769 -77.9356 251° West 378 435 22,000 -300 Descending Cleveland Center
07:37AM 39.9742 -78.0786 269° West 396 456 22,000 -360 Level Cleveland Center
07:38AM 39.9897 -78.2147 279° West 383 441 21,300 -960 Descending Cleveland Center
07:39AM 40.0097 -78.3625 280° West 375 432 20,100 -1,080 Descending Cleveland Center
07:40AM 40.0278 -78.4886 281° West 360 414 19,100 -1,020 Descending Cleveland Center
07:41AM 40.0461 -78.6175 281° West 360 414 18,100 -900 Descending Cleveland Center
07:42AM 40.0639 -78.7436 280° West 360 414 17,300 -900 Descending Cleveland Center
07:43AM 40.0811 -78.8700 280° West 358 412 16,300 -1,140 Descending Cleveland Center
07:44AM 40.1028 -79.0211 281° West 356 410 15,000 -1,080 Descending Cleveland Center
07:45AM 40.1189 -79.1456 280° West 353 406 14,100 -960 Descending Cleveland Center
07:46AM 40.1356 -79.2706 280° West 350 403 13,100 -1,020 Descending Cleveland Center
07:47AM 40.1506 -79.3819 280° West 349 402 12,100 -1,080 Descending Cleveland Center
07:49AM 40.1706 -79.5311 280° West 348 400 10,900 -1,020 Descending Cleveland Center
07:50AM 40.1875 -79.6561 280° West 348 400 10,000 -600 Descending Cleveland Center
07:51AM 40.2214 -79.7481 296° West 291 335 9,700 -960 Descending Cleveland Center
07:52AM 40.2781 -79.8081 321° Northwest 267 307 8,100 -1,560 Descending Cleveland Center
07:53AM 40.3342 -79.8697 320° Northwest 266 306 6,500 -1,500 Descending Cleveland Center
07:54AM 40.3994 -79.9397 321° Northwest 259 298 5,000 -960 Descending Cleveland Center
07:55AM 40.4497 -79.9936 321° Northwest 243 280 4,600 -480 Descending Cleveland Center
07:56AM 40.4972 -80.0422 322° Northwest 225 259 4,000 -780 Descending Cleveland Center
07:57AM 40.4983 -80.1069 271° West 185 213 3,000 -840 Descending Cleveland Center
07:58AM 40.4989 -80.1508 271° West 130 150 2,400 -660 Descending Cleveland Center
07:59AM 40.5000 -80.2014 272° West 119 137 1,700 -720 Descending Cleveland Center
08:01AM 40.4833 -80.2167 303° West  Level FlightAware Approximate
08:08AM 40.4914 -80.2327 303° West  Level Estimated